sensor_id;sensor_type;location;lat;lon;timestamp;P1;durP1;ratioP1;P2;durP2;ratioP2
21305;SDS011;10812;51.838;5.838;2022-08-14T00:01:56;4.35;;;4.05;;
21305;SDS011;10812;51.838;5.838;2022-08-14T00:04:28;4.55;;;4.00;;
21305;SDS011;10812;51.838;5.838;2022-08-14T00:07:07;5.68;;;4.30;;
21305;SDS011;10812;51.838;5.838;2022-08-14T00:09:36;5.80;;;4.30;;
21305;SDS011;10812;51.838;5.838;2022-08-14T00:12:25;5.03;;;3.95;;
21305;SDS011;10812;51.838;5.838;2022-08-14T00:14:59;5.28;;;4.10;;
21305;SDS011;10812;51.838;5.838;2022-08-14T00:17:28;6.78;;;4.35;;
21305;SDS011;10812;51.838;5.838;2022-08-14T00:20:14;5.55;;;4.22;;
21305;SDS011;10812;51.838;5.838;2022-08-14T00:22:55;5.88;;;4.43;;
21305;SDS011;10812;51.838;5.838;2022-08-14T00:25:33;4.55;;;4.15;;
21305;SDS011;10812;51.838;5.838;2022-08-14T00:28:08;7.35;;;6.63;;
21305;SDS011;10812;51.838;5.838;2022-08-14T00:30:43;5.03;;;4.40;;
21305;SDS011;10812;51.838;5.838;2022-08-14T00:33:12;5.18;;;4.65;;
21305;SDS011;10812;51.838;5.838;2022-08-14T00:35:43;5.75;;;4.20;;
21305;SDS011;10812;51.838;5.838;2022-08-14T00:38:32;4.88;;;4.40;;
21305;SDS011;10812;51.838;5.838;2022-08-14T00:41:01;4.65;;;4.25;;
21305;SDS011;10812;51.838;5.838;2022-08-14T00:43:31;4.35;;;3.95;;
21305;SDS011;10812;51.838;5.838;2022-08-14T00:46:02;6.82;;;4.20;;
21305;SDS011;10812;51.838;5.838;2022-08-14T00:48:33;5.60;;;4.22;;
21305;SDS011;10812;51.838;5.838;2022-08-14T00:51:06;4.70;;;4.22;;
21305;SDS011;10812;51.838;5.838;2022-08-14T00:53:36;4.97;;;4.47;;
21305;SDS011;10812;51.838;5.838;2022-08-14T00:56:08;4.30;;;3.90;;
21305;SDS011;10812;51.838;5.838;2022-08-14T01:05:38;4.15;;;3.80;;
21305;SDS011;10812;51.838;5.838;2022-08-14T01:08:20;7.93;;;4.95;;
21305;SDS011;10812;51.838;5.838;2022-08-14T01:11:10;4.38;;;3.97;;
21305;SDS011;10812;51.838;5.838;2022-08-14T01:13:45;4.80;;;4.40;;
21305;SDS011;10812;51.838;5.838;2022-08-14T01:16:21;5.43;;;4.28;;
21305;SDS011;10812;51.838;5.838;2022-08-14T01:18:56;4.32;;;3.53;;
21305;SDS011;10812;51.838;5.838;2022-08-14T01:21:42;5.43;;;3.85;;
21305;SDS011;10812;51.838;5.838;2022-08-14T01:24:19;4.38;;;4.00;;
21305;SDS011;10812;51.838;5.838;2022-08-14T01:26:55;4.35;;;3.97;;
21305;SDS011;10812;51.838;5.838;2022-08-14T01:29:26;4.70;;;4.30;;
21305;SDS011;10812;51.838;5.838;2022-08-14T01:32:16;5.13;;;4.07;;
21305;SDS011;10812;51.838;5.838;2022-08-14T01:34:49;5.75;;;4.55;;
21305;SDS011;10812;51.838;5.838;2022-08-14T01:37:39;6.18;;;4.25;;
21305;SDS011;10812;51.838;5.838;2022-08-14T01:40:21;4.43;;;4.03;;
21305;SDS011;10812;51.838;5.838;2022-08-14T01:43:07;5.63;;;4.20;;
21305;SDS011;10812;51.838;5.838;2022-08-14T01:45:47;4.57;;;4.18;;
21305;SDS011;10812;51.838;5.838;2022-08-14T01:48:31;5.25;;;4.68;;
21305;SDS011;10812;51.838;5.838;2022-08-14T01:51:03;5.63;;;4.90;;
21305;SDS011;10812;51.838;5.838;2022-08-14T01:53:47;6.38;;;4.97;;
21305;SDS011;10812;51.838;5.838;2022-08-14T01:56:21;6.18;;;4.65;;
21305;SDS011;10812;51.838;5.838;2022-08-14T01:59:05;5.97;;;5.03;;
21305;SDS011;10812;51.838;5.838;2022-08-14T02:01:35;6.40;;;5.32;;
21305;SDS011;10812;51.838;5.838;2022-08-14T02:04:07;6.15;;;5.00;;
21305;SDS011;10812;51.838;5.838;2022-08-14T02:06:56;5.32;;;4.82;;
21305;SDS011;10812;51.838;5.838;2022-08-14T02:09:26;6.35;;;5.05;;
21305;SDS011;10812;51.838;5.838;2022-08-14T02:31:02;5.75;;;4.72;;
21305;SDS011;10812;51.838;5.838;2022-08-14T02:33:34;5.30;;;4.80;;
21305;SDS011;10812;51.838;5.838;2022-08-14T02:36:06;6.25;;;5.35;;
21305;SDS011;10812;51.838;5.838;2022-08-14T02:38:55;7.47;;;5.53;;
21305;SDS011;10812;51.838;5.838;2022-08-14T02:41:24;6.05;;;5.45;;
21305;SDS011;10812;51.838;5.838;2022-08-14T02:43:54;6.00;;;5.40;;
21305;SDS011;10812;51.838;5.838;2022-08-14T02:46:28;5.63;;;4.97;;
21305;SDS011;10812;51.838;5.838;2022-08-14T02:48:58;6.90;;;5.43;;
21305;SDS011;10812;51.838;5.838;2022-08-14T02:51:31;5.72;;;5.13;;
21305;SDS011;10812;51.838;5.838;2022-08-14T02:54:02;5.38;;;4.88;;
21305;SDS011;10812;51.838;5.838;2022-08-14T02:56:32;7.13;;;5.10;;
21305;SDS011;10812;51.838;5.838;2022-08-14T02:59:24;7.93;;;5.13;;
21305;SDS011;10812;51.838;5.838;2022-08-14T03:07:21;5.88;;;5.28;;
21305;SDS011;10812;51.838;5.838;2022-08-14T03:09:52;5.90;;;5.32;;
21305;SDS011;10812;51.838;5.838;2022-08-14T03:12:40;6.93;;;5.47;;
21305;SDS011;10812;51.838;5.838;2022-08-14T03:15:09;10.18;;;5.97;;
21305;SDS011;10812;51.838;5.838;2022-08-14T03:17:42;6.35;;;5.75;;
21305;SDS011;10812;51.838;5.838;2022-08-14T03:20:23;6.30;;;5.70;;
21305;SDS011;10812;51.838;5.838;2022-08-14T03:22:55;6.72;;;6.03;;
21305;SDS011;10812;51.838;5.838;2022-08-14T03:25:25;6.70;;;5.32;;
21305;SDS011;10812;51.838;5.838;2022-08-14T03:28:03;6.13;;;5.47;;
21305;SDS011;10812;51.838;5.838;2022-08-14T03:30:32;6.68;;;6.07;;
21305;SDS011;10812;51.838;5.838;2022-08-14T03:33:06;6.90;;;6.00;;
21305;SDS011;10812;51.838;5.838;2022-08-14T03:35:37;8.30;;;5.90;;
21305;SDS011;10812;51.838;5.838;2022-08-14T03:38:28;6.63;;;6.03;;
21305;SDS011;10812;51.838;5.838;2022-08-14T03:41:17;7.90;;;6.30;;
21305;SDS011;10812;51.838;5.838;2022-08-14T03:43:50;7.43;;;6.47;;
21305;SDS011;10812;51.838;5.838;2022-08-14T03:46:28;8.30;;;7.50;;
21305;SDS011;10812;51.838;5.838;2022-08-14T03:49:19;8.48;;;7.57;;
21305;SDS011;10812;51.838;5.838;2022-08-14T03:51:55;7.90;;;7.07;;
21305;SDS011;10812;51.838;5.838;2022-08-14T03:54:27;9.38;;;7.88;;
21305;SDS011;10812;51.838;5.838;2022-08-14T03:56:56;9.55;;;7.70;;
21305;SDS011;10812;51.838;5.838;2022-08-14T03:59:28;12.55;;;7.72;;
21305;SDS011;10812;51.838;5.838;2022-08-14T04:01:57;12.88;;;8.18;;
21305;SDS011;10812;51.838;5.838;2022-08-14T04:04:29;8.60;;;7.70;;
21305;SDS011;10812;51.838;5.838;2022-08-14T04:06:59;8.75;;;7.68;;
21305;SDS011;10812;51.838;5.838;2022-08-14T04:09:29;9.23;;;8.00;;
21305;SDS011;10812;51.838;5.838;2022-08-14T04:11:58;8.93;;;8.02;;
21305;SDS011;10812;51.838;5.838;2022-08-14T04:14:31;11.07;;;8.05;;
21305;SDS011;10812;51.838;5.838;2022-08-14T04:17:03;8.63;;;7.72;;
21305;SDS011;10812;51.838;5.838;2022-08-14T04:19:35;9.13;;;7.70;;
21305;SDS011;10812;51.838;5.838;2022-08-14T04:22:04;8.93;;;7.93;;
21305;SDS011;10812;51.838;5.838;2022-08-14T04:24:33;9.20;;;8.30;;
21305;SDS011;10812;51.838;5.838;2022-08-14T04:27:04;10.05;;;7.93;;
21305;SDS011;10812;51.838;5.838;2022-08-14T04:29:35;10.80;;;8.88;;
21305;SDS011;10812;51.838;5.838;2022-08-14T04:32:05;10.50;;;8.57;;
21305;SDS011;10812;51.838;5.838;2022-08-14T04:34:54;9.25;;;8.25;;
21305;SDS011;10812;51.838;5.838;2022-08-14T04:37:22;8.65;;;7.85;;
21305;SDS011;10812;51.838;5.838;2022-08-14T04:40:12;9.10;;;8.07;;
21305;SDS011;10812;51.838;5.838;2022-08-14T04:43:00;8.98;;;8.05;;
21305;SDS011;10812;51.838;5.838;2022-08-14T04:45:46;10.48;;;9.38;;
21305;SDS011;10812;51.838;5.838;2022-08-14T04:48:17;9.88;;;8.57;;
21305;SDS011;10812;51.838;5.838;2022-08-14T04:51:08;9.93;;;8.43;;
21305;SDS011;10812;51.838;5.838;2022-08-14T04:53:39;9.52;;;8.20;;
21305;SDS011;10812;51.838;5.838;2022-08-14T04:56:12;9.82;;;8.82;;
21305;SDS011;10812;51.838;5.838;2022-08-14T04:58:59;9.73;;;8.80;;
21305;SDS011;10812;51.838;5.838;2022-08-14T05:01:36;10.10;;;9.10;;
21305;SDS011;10812;51.838;5.838;2022-08-14T05:04:12;9.27;;;8.27;;
21305;SDS011;10812;51.838;5.838;2022-08-14T05:06:45;10.30;;;8.85;;
21305;SDS011;10812;51.838;5.838;2022-08-14T05:09:14;9.93;;;8.93;;
21305;SDS011;10812;51.838;5.838;2022-08-14T05:11:44;11.63;;;9.27;;
21305;SDS011;10812;51.838;5.838;2022-08-14T05:14:13;11.65;;;8.90;;
21305;SDS011;10812;51.838;5.838;2022-08-14T05:17:03;10.07;;;9.07;;
21305;SDS011;10812;51.838;5.838;2022-08-14T05:19:32;11.38;;;8.82;;
21305;SDS011;10812;51.838;5.838;2022-08-14T05:22:10;10.63;;;9.05;;
21305;SDS011;10812;51.838;5.838;2022-08-14T05:24:44;13.80;;;10.10;;
21305;SDS011;10812;51.838;5.838;2022-08-14T05:27:18;10.85;;;9.48;;
21305;SDS011;10812;51.838;5.838;2022-08-14T05:29:50;10.95;;;9.43;;
21305;SDS011;10812;51.838;5.838;2022-08-14T05:32:22;10.13;;;9.07;;
21305;SDS011;10812;51.838;5.838;2022-08-14T05:34:53;10.63;;;9.52;;
21305;SDS011;10812;51.838;5.838;2022-08-14T05:37:23;12.45;;;9.90;;
21305;SDS011;10812;51.838;5.838;2022-08-14T05:39:54;10.75;;;9.65;;
21305;SDS011;10812;51.838;5.838;2022-08-14T05:42:25;12.73;;;9.65;;
21305;SDS011;10812;51.838;5.838;2022-08-14T05:44:59;11.35;;;9.07;;
21305;SDS011;10812;51.838;5.838;2022-08-14T05:47:29;10.63;;;9.63;;
21305;SDS011;10812;51.838;5.838;2022-08-14T05:50:05;10.02;;;9.02;;
21305;SDS011;10812;51.838;5.838;2022-08-14T05:52:44;11.38;;;9.88;;
21305;SDS011;10812;51.838;5.838;2022-08-14T05:55:14;11.45;;;9.60;;
21305;SDS011;10812;51.838;5.838;2022-08-14T05:57:50;11.60;;;10.40;;
21305;SDS011;10812;51.838;5.838;2022-08-14T06:00:23;11.40;;;10.25;;
21305;SDS011;10812;51.838;5.838;2022-08-14T06:03:05;11.13;;;9.90;;
21305;SDS011;10812;51.838;5.838;2022-08-14T06:05:35;11.27;;;10.20;;
21305;SDS011;10812;51.838;5.838;2022-08-14T06:08:04;12.10;;;9.60;;
21305;SDS011;10812;51.838;5.838;2022-08-14T06:10:53;11.40;;;9.95;;
21305;SDS011;10812;51.838;5.838;2022-08-14T06:13:30;12.30;;;11.02;;
21305;SDS011;10812;51.838;5.838;2022-08-14T06:16:11;10.82;;;9.70;;
21305;SDS011;10812;51.838;5.838;2022-08-14T06:18:44;10.00;;;8.95;;
21305;SDS011;10812;51.838;5.838;2022-08-14T06:21:18;10.27;;;9.23;;
21305;SDS011;10812;51.838;5.838;2022-08-14T06:23:47;10.25;;;9.25;;
21305;SDS011;10812;51.838;5.838;2022-08-14T06:26:16;9.88;;;8.98;;
21305;SDS011;10812;51.838;5.838;2022-08-14T06:28:49;9.40;;;8.25;;
21305;SDS011;10812;51.838;5.838;2022-08-14T06:31:18;9.65;;;8.82;;
21305;SDS011;10812;51.838;5.838;2022-08-14T06:33:46;9.75;;;8.88;;
21305;SDS011;10812;51.838;5.838;2022-08-14T06:36:35;10.68;;;9.52;;
21305;SDS011;10812;51.838;5.838;2022-08-14T06:39:04;10.15;;;9.18;;
21305;SDS011;10812;51.838;5.838;2022-08-14T06:41:35;9.35;;;8.55;;
21305;SDS011;10812;51.838;5.838;2022-08-14T06:44:25;10.02;;;9.00;;
21305;SDS011;10812;51.838;5.838;2022-08-14T06:46:58;8.90;;;8.10;;
21305;SDS011;10812;51.838;5.838;2022-08-14T06:49:30;8.93;;;8.13;;
21305;SDS011;10812;51.838;5.838;2022-08-14T06:52:10;9.75;;;8.90;;
21305;SDS011;10812;51.838;5.838;2022-08-14T06:54:41;9.55;;;8.35;;
21305;SDS011;10812;51.838;5.838;2022-08-14T06:57:09;9.73;;;7.45;;
21305;SDS011;10812;51.838;5.838;2022-08-14T06:59:40;7.88;;;7.13;;
21305;SDS011;10812;51.838;5.838;2022-08-14T07:02:08;8.50;;;7.72;;
21305;SDS011;10812;51.838;5.838;2022-08-14T07:04:54;8.45;;;7.68;;
21305;SDS011;10812;51.838;5.838;2022-08-14T07:07:49;9.35;;;8.43;;
21305;SDS011;10812;51.838;5.838;2022-08-14T07:10:17;8.68;;;7.88;;
21305;SDS011;10812;51.838;5.838;2022-08-14T07:12:50;9.32;;;8.48;;
21305;SDS011;10812;51.838;5.838;2022-08-14T07:15:30;9.85;;;8.95;;
21305;SDS011;10812;51.838;5.838;2022-08-14T07:18:07;8.45;;;7.65;;
21305;SDS011;10812;51.838;5.838;2022-08-14T07:20:37;9.65;;;8.77;;
21305;SDS011;10812;51.838;5.838;2022-08-14T07:23:08;9.10;;;8.35;;
21305;SDS011;10812;51.838;5.838;2022-08-14T07:25:47;9.40;;;8.55;;
21305;SDS011;10812;51.838;5.838;2022-08-14T07:28:17;9.15;;;8.10;;
21305;SDS011;10812;51.838;5.838;2022-08-14T07:30:50;9.02;;;8.32;;
21305;SDS011;10812;51.838;5.838;2022-08-14T07:33:31;8.45;;;7.75;;
21305;SDS011;10812;51.838;5.838;2022-08-14T07:36:03;9.15;;;8.25;;
21305;SDS011;10812;51.838;5.838;2022-08-14T07:38:53;8.50;;;7.70;;
21305;SDS011;10812;51.838;5.838;2022-08-14T07:41:21;8.80;;;8.07;;
21305;SDS011;10812;51.838;5.838;2022-08-14T07:43:49;8.50;;;7.60;;
21305;SDS011;10812;51.838;5.838;2022-08-14T07:46:22;9.45;;;8.52;;
21305;SDS011;10812;51.838;5.838;2022-08-14T07:48:56;8.23;;;7.13;;
21305;SDS011;10812;51.838;5.838;2022-08-14T07:51:25;8.40;;;7.28;;
21305;SDS011;10812;51.838;5.838;2022-08-14T07:54:03;6.82;;;6.22;;
21305;SDS011;10812;51.838;5.838;2022-08-14T07:56:36;8.35;;;7.55;;
21305;SDS011;10812;51.838;5.838;2022-08-14T07:59:14;7.28;;;6.68;;
21305;SDS011;10812;51.838;5.838;2022-08-14T08:01:45;8.30;;;7.47;;
21305;SDS011;10812;51.838;5.838;2022-08-14T08:04:18;7.25;;;6.45;;
21305;SDS011;10812;51.838;5.838;2022-08-14T08:06:52;7.05;;;6.45;;
21305;SDS011;10812;51.838;5.838;2022-08-14T08:09:22;8.25;;;6.85;;
21305;SDS011;10812;51.838;5.838;2022-08-14T08:11:58;8.15;;;7.45;;
21305;SDS011;10812;51.838;5.838;2022-08-14T08:14:30;7.57;;;6.93;;
21305;SDS011;10812;51.838;5.838;2022-08-14T08:17:22;7.38;;;6.78;;
21305;SDS011;10812;51.838;5.838;2022-08-14T08:19:50;8.18;;;7.40;;
21305;SDS011;10812;51.838;5.838;2022-08-14T08:22:18;8.65;;;7.15;;
21305;SDS011;10812;51.838;5.838;2022-08-14T08:24:52;8.07;;;7.03;;
21305;SDS011;10812;51.838;5.838;2022-08-14T08:27:23;8.15;;;7.45;;
21305;SDS011;10812;51.838;5.838;2022-08-14T08:30:01;9.10;;;7.60;;
21305;SDS011;10812;51.838;5.838;2022-08-14T08:32:38;8.70;;;7.85;;
21305;SDS011;10812;51.838;5.838;2022-08-14T08:35:16;7.53;;;6.68;;
21305;SDS011;10812;51.838;5.838;2022-08-14T08:37:46;8.90;;;8.10;;
21305;SDS011;10812;51.838;5.838;2022-08-14T08:40:27;8.07;;;7.35;;
21305;SDS011;10812;51.838;5.838;2022-08-14T08:43:08;8.73;;;7.82;;
21305;SDS011;10812;51.838;5.838;2022-08-14T08:45:48;7.78;;;7.18;;
21305;SDS011;10812;51.838;5.838;2022-08-14T08:48:22;7.85;;;7.15;;
21305;SDS011;10812;51.838;5.838;2022-08-14T08:51:01;7.55;;;6.85;;
21305;SDS011;10812;51.838;5.838;2022-08-14T08:53:54;7.85;;;7.15;;
21305;SDS011;10812;51.838;5.838;2022-08-14T08:56:33;8.38;;;7.45;;
21305;SDS011;10812;51.838;5.838;2022-08-14T08:59:15;7.28;;;6.68;;
21305;SDS011;10812;51.838;5.838;2022-08-14T09:01:50;10.82;;;8.60;;
21305;SDS011;10812;51.838;5.838;2022-08-14T09:04:25;9.00;;;8.15;;
21305;SDS011;10812;51.838;5.838;2022-08-14T09:06:53;7.47;;;6.72;;
21305;SDS011;10812;51.838;5.838;2022-08-14T09:09:36;8.18;;;7.40;;
21305;SDS011;10812;51.838;5.838;2022-08-14T09:12:24;7.43;;;6.82;;
21305;SDS011;10812;51.838;5.838;2022-08-14T09:14:58;11.55;;;7.05;;
21305;SDS011;10812;51.838;5.838;2022-08-14T09:17:27;7.35;;;6.68;;
21305;SDS011;10812;51.838;5.838;2022-08-14T09:19:57;8.38;;;7.55;;
21305;SDS011;10812;51.838;5.838;2022-08-14T09:22:29;7.72;;;7.03;;
21305;SDS011;10812;51.838;5.838;2022-08-14T09:25:13;7.95;;;7.22;;
21305;SDS011;10812;51.838;5.838;2022-08-14T09:27:42;8.43;;;6.57;;
21305;SDS011;10812;51.838;5.838;2022-08-14T09:30:11;7.40;;;6.53;;
21305;SDS011;10812;51.838;5.838;2022-08-14T09:39:09;7.35;;;6.75;;
21305;SDS011;10812;51.838;5.838;2022-08-14T09:41:52;7.03;;;6.43;;
21305;SDS011;10812;51.838;5.838;2022-08-14T09:44:49;7.03;;;6.35;;
21305;SDS011;10812;51.838;5.838;2022-08-14T09:47:40;7.20;;;6.50;;
21305;SDS011;10812;51.838;5.838;2022-08-14T09:50:17;7.38;;;6.75;;
21305;SDS011;10812;51.838;5.838;2022-08-14T09:52:52;6.90;;;6.20;;
21305;SDS011;10812;51.838;5.838;2022-08-14T09:55:31;6.35;;;5.78;;
21305;SDS011;10812;51.838;5.838;2022-08-14T09:58:09;6.90;;;6.13;;
21305;SDS011;10812;51.838;5.838;2022-08-14T10:00:45;6.32;;;5.72;;
21305;SDS011;10812;51.838;5.838;2022-08-14T10:03:24;6.53;;;5.93;;
21305;SDS011;10812;51.838;5.838;2022-08-14T10:06:05;6.07;;;5.68;;
21305;SDS011;10812;51.838;5.838;2022-08-14T10:08:39;6.50;;;5.88;;
21305;SDS011;10812;51.838;5.838;2022-08-14T10:11:17;6.30;;;5.70;;
21305;SDS011;10812;51.838;5.838;2022-08-14T10:13:49;6.18;;;5.68;;
21305;SDS011;10812;51.838;5.838;2022-08-14T10:16:21;5.80;;;5.30;;
21305;SDS011;10812;51.838;5.838;2022-08-14T10:19:02;6.55;;;5.95;;
21305;SDS011;10812;51.838;5.838;2022-08-14T10:21:34;6.93;;;5.38;;
21305;SDS011;10812;51.838;5.838;2022-08-14T10:24:24;6.15;;;5.68;;
21305;SDS011;10812;51.838;5.838;2022-08-14T10:27:03;6.25;;;5.57;;
21305;SDS011;10812;51.838;5.838;2022-08-14T10:29:42;6.55;;;5.70;;
21305;SDS011;10812;51.838;5.838;2022-08-14T10:32:14;6.35;;;5.85;;
21305;SDS011;10812;51.838;5.838;2022-08-14T10:35:02;5.10;;;4.70;;
21305;SDS011;10812;51.838;5.838;2022-08-14T10:37:39;5.40;;;4.90;;
21305;SDS011;10812;51.838;5.838;2022-08-14T10:40:10;5.40;;;5.00;;
21305;SDS011;10812;51.838;5.838;2022-08-14T10:43:02;5.85;;;5.35;;
21305;SDS011;10812;51.838;5.838;2022-08-14T10:45:50;5.72;;;5.22;;
21305;SDS011;10812;51.838;5.838;2022-08-14T10:48:40;5.25;;;4.85;;
21305;SDS011;10812;51.838;5.838;2022-08-14T10:51:11;5.63;;;4.97;;
21305;SDS011;10812;51.838;5.838;2022-08-14T10:53:52;6.07;;;5.10;;
21305;SDS011;10812;51.838;5.838;2022-08-14T10:56:27;5.43;;;4.95;;
21305;SDS011;10812;51.838;5.838;2022-08-14T10:59:01;5.10;;;4.60;;
21305;SDS011;10812;51.838;5.838;2022-08-14T11:01:30;5.25;;;4.72;;
21305;SDS011;10812;51.838;5.838;2022-08-14T11:04:18;5.18;;;4.40;;
21305;SDS011;10812;51.838;5.838;2022-08-14T11:06:52;5.20;;;4.70;;
21305;SDS011;10812;51.838;5.838;2022-08-14T11:09:22;4.68;;;4.30;;
21305;SDS011;10812;51.838;5.838;2022-08-14T11:11:53;4.32;;;4.00;;
21305;SDS011;10812;51.838;5.838;2022-08-14T11:14:50;4.35;;;3.95;;
21305;SDS011;10812;51.838;5.838;2022-08-14T11:17:27;4.70;;;4.18;;
21305;SDS011;10812;51.838;5.838;2022-08-14T11:19:58;4.80;;;4.40;;
21305;SDS011;10812;51.838;5.838;2022-08-14T11:22:28;5.07;;;4.43;;
21305;SDS011;10812;51.838;5.838;2022-08-14T11:25:18;4.00;;;3.70;;
21305;SDS011;10812;51.838;5.838;2022-08-14T11:27:49;4.72;;;4.18;;
21305;SDS011;10812;51.838;5.838;2022-08-14T11:30:23;5.32;;;4.75;;
21305;SDS011;10812;51.838;5.838;2022-08-14T11:33:13;4.95;;;4.50;;
21305;SDS011;10812;51.838;5.838;2022-08-14T11:35:46;4.35;;;3.92;;
21305;SDS011;10812;51.838;5.838;2022-08-14T11:38:14;4.10;;;3.80;;
21305;SDS011;10812;51.838;5.838;2022-08-14T11:40:47;4.95;;;4.55;;
21305;SDS011;10812;51.838;5.838;2022-08-14T11:43:17;5.75;;;4.90;;
21305;SDS011;10812;51.838;5.838;2022-08-14T11:45:57;4.45;;;4.05;;
21305;SDS011;10812;51.838;5.838;2022-08-14T11:48:29;4.38;;;4.05;;
21305;SDS011;10812;51.838;5.838;2022-08-14T11:51:18;4.65;;;4.30;;
21305;SDS011;10812;51.838;5.838;2022-08-14T11:53:50;5.10;;;4.60;;
21305;SDS011;10812;51.838;5.838;2022-08-14T11:56:19;4.28;;;3.97;;
21305;SDS011;10812;51.838;5.838;2022-08-14T11:58:55;5.13;;;4.65;;
21305;SDS011;10812;51.838;5.838;2022-08-14T12:01:26;4.63;;;4.28;;
21305;SDS011;10812;51.838;5.838;2022-08-14T12:04:06;5.95;;;4.93;;
21305;SDS011;10812;51.838;5.838;2022-08-14T12:06:56;5.22;;;4.82;;
21305;SDS011;10812;51.838;5.838;2022-08-14T12:09:27;5.03;;;4.63;;
21305;SDS011;10812;51.838;5.838;2022-08-14T12:11:56;4.70;;;4.30;;
21305;SDS011;10812;51.838;5.838;2022-08-14T12:14:25;4.28;;;3.95;;
21305;SDS011;10812;51.838;5.838;2022-08-14T12:17:02;4.80;;;3.95;;
21305;SDS011;10812;51.838;5.838;2022-08-14T12:19:42;5.10;;;4.70;;
21305;SDS011;10812;51.838;5.838;2022-08-14T12:22:16;4.80;;;4.35;;
21305;SDS011;10812;51.838;5.838;2022-08-14T12:25:06;4.65;;;4.25;;
21305;SDS011;10812;51.838;5.838;2022-08-14T12:27:37;5.53;;;4.97;;
21305;SDS011;10812;51.838;5.838;2022-08-14T12:30:29;4.80;;;4.40;;
21305;SDS011;10812;51.838;5.838;2022-08-14T12:33:17;5.28;;;4.47;;
21305;SDS011;10812;51.838;5.838;2022-08-14T12:35:58;4.63;;;4.22;;
21305;SDS011;10812;51.838;5.838;2022-08-14T12:38:32;4.72;;;4.25;;
21305;SDS011;10812;51.838;5.838;2022-08-14T12:41:02;4.45;;;4.15;;
21305;SDS011;10812;51.838;5.838;2022-08-14T12:43:43;4.32;;;4.03;;
21305;SDS011;10812;51.838;5.838;2022-08-14T12:46:19;5.30;;;4.63;;
21305;SDS011;10812;51.838;5.838;2022-08-14T12:48:55;5.15;;;4.65;;
21305;SDS011;10812;51.838;5.838;2022-08-14T12:51:25;4.25;;;3.92;;
21305;SDS011;10812;51.838;5.838;2022-08-14T12:53:56;4.82;;;4.20;;
21305;SDS011;10812;51.838;5.838;2022-08-14T12:56:25;5.07;;;4.68;;
21305;SDS011;10812;51.838;5.838;2022-08-14T12:58:59;5.30;;;4.80;;
21305;SDS011;10812;51.838;5.838;2022-08-14T13:01:29;4.63;;;4.22;;
21305;SDS011;10812;51.838;5.838;2022-08-14T13:04:20;5.85;;;4.50;;
21305;SDS011;10812;51.838;5.838;2022-08-14T13:06:49;4.80;;;3.97;;
21305;SDS011;10812;51.838;5.838;2022-08-14T13:09:18;4.80;;;4.47;;
21305;SDS011;10812;51.838;5.838;2022-08-14T13:11:49;5.40;;;4.90;;
21305;SDS011;10812;51.838;5.838;2022-08-14T13:14:39;4.85;;;4.45;;
21305;SDS011;10812;51.838;5.838;2022-08-14T13:17:13;4.30;;;3.90;;
21305;SDS011;10812;51.838;5.838;2022-08-14T13:19:44;4.95;;;4.43;;
21305;SDS011;10812;51.838;5.838;2022-08-14T13:22:14;5.20;;;4.70;;
21305;SDS011;10812;51.838;5.838;2022-08-14T13:25:04;4.65;;;4.35;;
21305;SDS011;10812;51.838;5.838;2022-08-14T13:27:33;5.18;;;4.68;;
21305;SDS011;10812;51.838;5.838;2022-08-14T13:30:05;4.57;;;4.28;;
21305;SDS011;10812;51.838;5.838;2022-08-14T13:32:39;6.30;;;4.32;;
21305;SDS011;10812;51.838;5.838;2022-08-14T13:35:12;5.35;;;4.85;;
21305;SDS011;10812;51.838;5.838;2022-08-14T13:37:43;4.95;;;4.53;;
21305;SDS011;10812;51.838;5.838;2022-08-14T13:40:13;5.30;;;4.80;;
21305;SDS011;10812;51.838;5.838;2022-08-14T13:42:43;4.60;;;4.03;;
21305;SDS011;10812;51.838;5.838;2022-08-14T13:45:18;5.20;;;4.80;;
21305;SDS011;10812;51.838;5.838;2022-08-14T13:47:47;4.85;;;4.45;;
21305;SDS011;10812;51.838;5.838;2022-08-14T13:50:19;4.53;;;4.20;;
21305;SDS011;10812;51.838;5.838;2022-08-14T13:52:51;4.65;;;4.25;;
21305;SDS011;10812;51.838;5.838;2022-08-14T13:55:20;6.43;;;4.28;;
21305;SDS011;10812;51.838;5.838;2022-08-14T13:57:54;5.10;;;4.60;;
21305;SDS011;10812;51.838;5.838;2022-08-14T14:00:30;5.47;;;4.90;;
21305;SDS011;10812;51.838;5.838;2022-08-14T14:03:17;4.70;;;4.30;;
21305;SDS011;10812;51.838;5.838;2022-08-14T14:05:49;5.38;;;4.97;;
21305;SDS011;10812;51.838;5.838;2022-08-14T14:08:20;5.18;;;4.25;;
21305;SDS011;10812;51.838;5.838;2022-08-14T14:11:10;7.05;;;4.68;;
21305;SDS011;10812;51.838;5.838;2022-08-14T14:13:41;5.00;;;4.63;;
21305;SDS011;10812;51.838;5.838;2022-08-14T14:16:11;4.53;;;4.13;;
21305;SDS011;10812;51.838;5.838;2022-08-14T14:18:56;6.90;;;4.28;;
21305;SDS011;10812;51.838;5.838;2022-08-14T14:21:37;6.43;;;5.13;;
21305;SDS011;10812;51.838;5.838;2022-08-14T14:24:07;4.95;;;4.55;;
21305;SDS011;10812;51.838;5.838;2022-08-14T14:26:42;6.97;;;4.80;;
21305;SDS011;10812;51.838;5.838;2022-08-14T14:29:12;5.32;;;4.80;;
21305;SDS011;10812;51.838;5.838;2022-08-14T14:31:42;5.00;;;4.32;;
21305;SDS011;10812;51.838;5.838;2022-08-14T14:34:15;7.00;;;4.60;;
21305;SDS011;10812;51.838;5.838;2022-08-14T14:36:57;4.75;;;4.38;;
21305;SDS011;10812;51.838;5.838;2022-08-14T14:39:29;4.60;;;4.20;;
21305;SDS011;10812;51.838;5.838;2022-08-14T14:42:04;4.60;;;4.25;;
21305;SDS011;10812;51.838;5.838;2022-08-14T14:44:35;4.88;;;4.47;;
21305;SDS011;10812;51.838;5.838;2022-08-14T14:47:08;4.90;;;4.50;;
21305;SDS011;10812;51.838;5.838;2022-08-14T14:49:37;5.10;;;4.70;;
21305;SDS011;10812;51.838;5.838;2022-08-14T14:52:22;5.40;;;5.00;;
21305;SDS011;10812;51.838;5.838;2022-08-14T14:54:54;4.28;;;3.97;;
21305;SDS011;10812;51.838;5.838;2022-08-14T14:57:24;4.97;;;4.40;;
21305;SDS011;10812;51.838;5.838;2022-08-14T15:00:02;5.00;;;4.50;;
21305;SDS011;10812;51.838;5.838;2022-08-14T15:02:38;5.05;;;4.50;;
21305;SDS011;10812;51.838;5.838;2022-08-14T15:05:08;5.82;;;4.53;;
21305;SDS011;10812;51.838;5.838;2022-08-14T15:07:40;4.53;;;4.13;;
21305;SDS011;10812;51.838;5.838;2022-08-14T15:10:10;5.07;;;4.68;;
21305;SDS011;10812;51.838;5.838;2022-08-14T15:12:55;5.13;;;4.72;;
21305;SDS011;10812;51.838;5.838;2022-08-14T15:15:29;4.63;;;4.32;;
21305;SDS011;10812;51.838;5.838;2022-08-14T15:17:58;5.10;;;4.70;;
21305;SDS011;10812;51.838;5.838;2022-08-14T15:20:27;4.65;;;4.35;;
21305;SDS011;10812;51.838;5.838;2022-08-14T15:22:58;5.10;;;4.60;;
21305;SDS011;10812;51.838;5.838;2022-08-14T15:25:38;5.20;;;4.68;;
21305;SDS011;10812;51.838;5.838;2022-08-14T15:28:06;4.97;;;4.47;;
21305;SDS011;10812;51.838;5.838;2022-08-14T15:30:38;5.28;;;4.80;;
21305;SDS011;10812;51.838;5.838;2022-08-14T15:33:07;4.90;;;4.50;;
21305;SDS011;10812;51.838;5.838;2022-08-14T15:35:38;5.18;;;4.55;;
21305;SDS011;10812;51.838;5.838;2022-08-14T15:38:12;5.18;;;4.68;;
21305;SDS011;10812;51.838;5.838;2022-08-14T15:40:43;4.88;;;4.43;;
21305;SDS011;10812;51.838;5.838;2022-08-14T15:43:21;5.22;;;4.85;;
21305;SDS011;10812;51.838;5.838;2022-08-14T15:45:56;5.00;;;4.50;;
21305;SDS011;10812;51.838;5.838;2022-08-14T15:48:26;5.32;;;4.20;;
21305;SDS011;10812;51.838;5.838;2022-08-14T16:02:28;5.25;;;4.75;;
21305;SDS011;10812;51.838;5.838;2022-08-14T16:04:56;4.65;;;4.30;;
21305;SDS011;10812;51.838;5.838;2022-08-14T16:07:24;7.47;;;6.80;;
21305;SDS011;10812;51.838;5.838;2022-08-14T16:09:53;6.07;;;5.57;;
21305;SDS011;10812;51.838;5.838;2022-08-14T16:12:41;5.32;;;4.72;;
21305;SDS011;10812;51.838;5.838;2022-08-14T16:15:13;5.55;;;5.15;;
21305;SDS011;10812;51.838;5.838;2022-08-14T16:17:45;6.07;;;4.97;;
21305;SDS011;10812;51.838;5.838;2022-08-14T16:20:14;5.55;;;5.05;;
21305;SDS011;10812;51.838;5.838;2022-08-14T16:23:03;5.05;;;4.55;;
21305;SDS011;10812;51.838;5.838;2022-08-14T16:25:37;4.82;;;4.43;;